createdAt,value
2019-04-06T00:01:08.336Z,38.90
2019-04-06T00:03:09.735Z,38.65
2019-04-06T00:05:11.668Z,35.73
2019-04-06T00:07:12.991Z,30.68
2019-04-06T00:09:14.422Z,38.88
2019-04-06T00:11:15.812Z,39.92
2019-04-06T00:13:17.453Z,37.70
2019-04-06T00:17:20.851Z,36.73
2019-04-06T00:19:22.288Z,35.03
2019-04-06T00:21:23.677Z,36.77
2019-04-06T00:23:25.097Z,33.08
2019-04-06T00:25:26.535Z,38.02
2019-04-06T00:27:27.952Z,39.00
2019-04-06T00:29:29.757Z,39.35
2019-04-06T00:31:36.136Z,38.42
2019-04-06T00:33:37.509Z,37.90
2019-04-06T00:35:41.277Z,39.63
2019-04-06T00:37:42.556Z,40.43
2019-04-06T00:39:43.706Z,38.38
2019-04-06T00:41:45.248Z,39.42
2019-04-06T00:43:46.376Z,40.73
2019-04-06T00:45:47.631Z,41.65
2019-04-06T00:47:48.767Z,41.10
2019-04-06T00:49:50.057Z,37.58
2019-04-06T00:51:54.139Z,40.90
2019-04-06T00:53:55.291Z,39.88
2019-04-06T00:55:56.508Z,41.42
2019-04-06T00:57:57.672Z,39.25
2019-04-06T00:59:58.813Z,39.65
2019-04-06T01:01:59.971Z,40.95
2019-04-06T01:04:01.465Z,43.40
2019-04-06T01:06:02.817Z,40.00
2019-04-06T01:08:04.230Z,44.15
2019-04-06T01:10:05.927Z,40.90
2019-04-06T01:12:27.037Z,43.23
2019-04-06T01:14:28.176Z,41.03
2019-04-06T01:16:29.634Z,40.95
2019-04-06T01:18:30.783Z,39.60
2019-04-06T01:20:31.927Z,39.27
2019-04-06T01:22:33.326Z,38.60
2019-04-06T01:24:34.495Z,43.73
2019-04-06T01:26:35.726Z,40.60
2019-04-06T01:28:36.860Z,44.73
2019-04-06T01:30:38.010Z,40.70
2019-04-06T01:32:39.435Z,32.23
2019-04-06T01:34:40.663Z,42.17
2019-04-06T01:36:41.834Z,40.65
2019-04-06T01:38:43.143Z,42.58
2019-04-06T01:40:44.291Z,44.25
2019-04-06T01:42:45.524Z,43.10
2019-04-06T01:44:46.672Z,44.98
2019-04-06T01:46:47.817Z,44.90
2019-04-06T01:48:49.077Z,42.13
2019-04-06T01:50:50.897Z,41.88
2019-04-06T01:52:52.435Z,42.65
2019-04-06T01:54:54.868Z,46.98
2019-04-06T01:56:56.257Z,44.60
2019-04-06T01:58:58.221Z,46.40
2019-04-06T02:01:18.609Z,46.80
2019-04-06T02:03:20.023Z,50.15
2019-04-06T02:05:21.411Z,46.13
2019-04-06T02:07:22.805Z,44.83
2019-04-06T02:09:24.192Z,51.70
2019-04-06T02:11:29.856Z,49.30
2019-04-06T02:13:35.403Z,48.10
2019-04-06T02:15:38.080Z,50.67
2019-04-06T02:19:40.985Z,46.00
2019-04-06T02:21:42.130Z,50.10
2019-04-06T02:23:43.368Z,48.73
2019-04-06T02:25:44.514Z,45.12
2019-04-06T02:27:45.653Z,49.70
2019-04-06T02:29:48.695Z,46.92
2019-04-06T02:32:09.653Z,48.60
2019-04-06T02:34:29.245Z,50.50
2019-04-06T02:36:41.602Z,46.77
2019-04-06T02:38:47.401Z,48.10
2019-04-06T02:41:07.494Z,49.48
2019-04-06T02:43:16.571Z,48.38
2019-04-06T02:45:17.936Z,50.65
2019-04-06T02:47:19.124Z,48.00
2019-04-06T02:49:20.270Z,49.48
2019-04-06T02:51:21.565Z,50.52
2019-04-06T02:53:22.758Z,50.05
2019-04-06T02:55:23.987Z,51.73
2019-04-06T02:57:25.143Z,47.50
2019-04-06T02:59:26.377Z,47.95
2019-04-06T03:01:27.541Z,49.00
2019-04-06T03:03:28.846Z,52.40
2019-04-06T03:05:30.098Z,51.73
2019-04-06T03:07:31.355Z,50.28
2019-04-06T03:09:32.687Z,48.60
2019-04-06T03:11:33.842Z,46.83
2019-04-06T03:13:35.004Z,48.95
2019-04-06T03:15:36.238Z,49.40
2019-04-06T03:17:37.670Z,34.95
2019-04-06T03:19:38.982Z,44.30
2019-04-06T03:21:40.247Z,44.63
2019-04-06T03:23:50.450Z,45.50
2019-04-06T03:25:44.566Z,49.58
2019-04-06T03:27:45.822Z,48.15
2019-04-06T03:29:57.238Z,43.63
2019-04-06T03:31:50.447Z,45.80
2019-04-06T03:33:51.595Z,43.73
2019-04-06T03:35:53.223Z,43.85
2019-04-06T03:39:55.770Z,45.15
2019-04-06T03:41:57.536Z,47.73
2019-04-06T03:43:59.164Z,44.65
2019-04-06T03:46:00.575Z,49.18
2019-04-06T03:48:02.631Z,44.30
2019-04-06T03:50:06.387Z,44.83
2019-04-06T03:52:07.814Z,47.48
2019-04-06T03:54:09.650Z,45.12
2019-04-06T03:56:31.323Z,45.67
2019-04-06T03:58:32.810Z,46.45
2019-04-06T04:00:34.217Z,48.90
2019-04-06T04:02:35.673Z,46.68
2019-04-06T04:04:37.062Z,49.38
2019-04-06T04:06:38.872Z,49.67
2019-04-06T04:08:40.384Z,50.67
2019-04-06T04:10:41.919Z,49.10
2019-04-06T04:12:43.078Z,50.23
2019-04-06T04:14:44.497Z,47.03
2019-04-06T04:16:45.760Z,44.23
2019-04-06T04:18:46.898Z,49.27
2019-04-06T04:22:53.534Z,48.20
2019-04-06T04:24:54.963Z,49.48
2019-04-06T04:26:56.144Z,50.50
2019-04-06T04:28:57.281Z,49.38
2019-04-06T04:30:58.568Z,48.30
2019-04-06T04:32:59.898Z,50.33
2019-04-06T04:35:01.122Z,46.00
2019-04-06T04:37:02.342Z,48.48
2019-04-06T04:39:05.311Z,48.65
2019-04-06T04:41:06.447Z,45.40
2019-04-06T04:43:07.597Z,47.80
2019-04-06T04:45:08.813Z,47.33
2019-04-06T04:47:09.998Z,48.50
2019-04-06T04:49:11.139Z,46.08
2019-04-06T04:51:12.305Z,51.23
2019-04-06T04:53:13.445Z,43.73
2019-04-06T04:55:14.744Z,48.83
2019-04-06T04:57:16.019Z,48.38
2019-04-06T04:59:17.248Z,49.77
2019-04-06T05:01:18.531Z,44.77
2019-04-06T05:03:20.140Z,48.30
2019-04-06T05:07:22.517Z,46.28
2019-04-06T05:09:23.656Z,45.50
2019-04-06T05:11:24.835Z,49.35
2019-04-06T05:13:26.043Z,50.78
2019-04-06T05:15:49.298Z,44.08
2019-04-06T05:17:50.482Z,43.52
2019-04-06T05:19:51.700Z,50.12
2019-04-06T05:21:52.849Z,42.60
2019-04-06T05:23:54.127Z,46.55
2019-04-06T05:25:55.353Z,49.55
2019-04-06T05:27:56.757Z,44.33
2019-04-06T05:29:57.911Z,46.63
2019-04-06T05:31:59.055Z,45.58
2019-04-06T05:34:00.469Z,47.03
2019-04-06T05:36:01.765Z,49.33
2019-04-06T05:38:02.901Z,50.48
2019-04-06T05:40:04.289Z,45.67
2019-04-06T05:42:05.688Z,47.40
2019-04-06T05:44:06.846Z,48.25
2019-04-06T05:46:08.383Z,48.75
2019-04-06T05:48:09.533Z,46.25
2019-04-06T05:50:10.796Z,46.10
2019-04-06T05:52:12.559Z,47.38
2019-04-06T05:54:13.769Z,46.37
2019-04-06T05:56:14.942Z,49.05
2019-04-06T05:58:16.554Z,46.25
2019-04-06T06:02:19.045Z,46.83
2019-04-06T06:04:20.328Z,42.00
2019-04-06T06:06:21.481Z,44.58
2019-04-06T06:08:22.725Z,41.40
2019-04-06T06:10:23.947Z,47.38
2019-04-06T06:12:25.100Z,44.27
2019-04-06T06:14:26.456Z,45.80
2019-04-06T06:16:27.703Z,47.93
2019-04-06T06:18:28.933Z,49.85
2019-04-06T06:20:30.266Z,47.73
2019-04-06T06:22:31.503Z,50.50
2019-04-06T06:24:34.715Z,48.17
2019-04-06T06:26:35.779Z,52.70
2019-04-06T06:28:37.052Z,52.13
2019-04-06T06:30:38.254Z,52.58
2019-04-06T06:32:39.390Z,53.85
2019-04-06T06:34:40.547Z,55.55
2019-04-06T06:36:41.696Z,50.78
2019-04-06T06:38:42.846Z,49.18
2019-04-06T06:40:43.985Z,51.05
2019-04-06T06:42:45.156Z,47.78
2019-04-06T06:44:46.404Z,47.73
2019-04-06T06:46:47.768Z,41.80
2019-04-06T06:48:49.638Z,45.17
2019-04-06T06:50:50.974Z,44.00
2019-04-06T06:52:52.214Z,47.38
2019-04-06T06:54:53.425Z,45.35
2019-04-06T06:56:54.658Z,45.48
2019-04-06T06:58:55.807Z,38.85
2019-04-06T07:00:56.958Z,44.83
2019-04-06T07:02:58.178Z,44.38
2019-04-06T07:04:59.731Z,47.03
2019-04-06T07:07:00.885Z,46.85
2019-04-06T07:09:05.203Z,44.10
2019-04-06T07:11:06.512Z,44.77
2019-04-06T07:13:07.775Z,36.13
2019-04-06T07:15:09.242Z,41.75
2019-04-06T07:17:10.563Z,43.52
2019-04-06T07:19:11.759Z,43.85
2019-04-06T07:21:13.043Z,43.50
2019-04-06T07:23:14.516Z,46.70
2019-04-06T07:25:15.781Z,43.90
2019-04-06T07:27:17.011Z,39.08
2019-04-06T07:29:18.225Z,43.50
2019-04-06T07:31:19.409Z,47.55
2019-04-06T07:33:20.820Z,46.73
2019-04-06T07:35:22.058Z,39.40
2019-04-06T07:37:23.198Z,42.95
2019-04-06T07:39:24.644Z,47.48
2019-04-06T07:41:25.975Z,43.95
2019-04-06T07:43:27.230Z,45.70
2019-04-06T07:45:28.427Z,49.88
2019-04-06T07:47:29.578Z,46.90
2019-04-06T07:49:30.762Z,47.85
2019-04-06T07:51:31.981Z,47.20
2019-04-06T07:53:33.435Z,46.35
2019-04-06T07:55:35.130Z,49.25
2019-04-06T07:57:36.650Z,44.25
2019-04-06T07:59:37.895Z,45.50
2019-04-06T08:01:39.312Z,44.23
2019-04-06T08:03:41.129Z,47.27
2019-04-06T08:05:42.558Z,48.70
2019-04-06T08:07:44.187Z,48.42
2019-04-06T08:09:45.776Z,46.90
2019-04-06T08:13:48.218Z,36.03
2019-04-06T08:15:49.972Z,45.23
2019-04-06T08:17:51.390Z,45.23
2019-04-06T08:19:52.737Z,42.70
2019-04-06T08:21:54.093Z,44.67
2019-04-06T08:23:55.237Z,44.08
2019-04-06T08:25:56.430Z,38.95
2019-04-06T08:27:57.706Z,45.23
2019-04-06T08:29:58.908Z,44.18
2019-04-06T08:32:00.391Z,48.55
2019-04-06T08:34:01.537Z,47.43
2019-04-06T08:36:02.782Z,47.85
2019-04-06T08:38:04.208Z,45.45
2019-04-06T08:40:05.762Z,47.38
2019-04-06T08:42:06.898Z,47.83
2019-04-06T08:44:08.386Z,44.00
2019-04-06T08:46:09.536Z,43.68
2019-04-06T08:48:11.111Z,45.98
2019-04-06T08:50:13.041Z,43.65
2019-04-06T08:52:14.322Z,45.00
2019-04-06T08:54:15.509Z,42.30
2019-04-06T08:56:16.666Z,45.73
2019-04-06T08:58:17.903Z,46.18
2019-04-06T09:00:19.149Z,46.75
2019-04-06T09:02:20.291Z,46.02
2019-04-06T09:04:21.682Z,47.03
2019-04-06T09:06:23.099Z,46.33
2019-04-06T09:08:24.782Z,45.15
2019-04-06T09:10:25.925Z,45.70
2019-04-06T09:12:27.418Z,47.13
2019-04-06T09:14:28.573Z,40.05
2019-04-06T09:16:29.731Z,46.18
2019-04-06T09:18:30.930Z,38.05
2019-04-06T09:20:32.066Z,45.43
2019-04-06T09:22:33.305Z,45.52
2019-04-06T09:24:34.546Z,44.73
2019-04-06T09:26:35.781Z,47.08
2019-04-06T09:28:36.991Z,45.90
2019-04-06T09:30:38.324Z,38.23
2019-04-06T09:32:39.518Z,43.70
2019-04-06T09:34:40.690Z,44.85
2019-04-06T09:36:41.902Z,41.63
2019-04-06T09:38:43.033Z,38.50
2019-04-06T09:40:44.489Z,44.53
2019-04-06T09:42:45.679Z,46.25
2019-04-06T09:44:48.860Z,44.93
2019-04-06T09:47:00.909Z,40.30
2019-04-06T09:49:11.099Z,42.20
2019-04-06T09:51:14.299Z,42.40
2019-04-06T09:53:20.279Z,43.63
2019-04-06T09:55:39.864Z,46.23
2019-04-06T09:57:59.866Z,43.13
2019-04-06T10:00:09.533Z,41.35
2019-04-06T10:02:24.679Z,42.78
2019-04-06T10:04:44.235Z,41.35
2019-04-06T10:07:04.153Z,40.88
2019-04-06T10:09:17.635Z,42.88
2019-04-06T10:11:20.774Z,46.85
2019-04-06T10:13:29.751Z,46.13
2019-04-06T10:15:32.898Z,43.52
2019-04-06T10:17:47.798Z,46.25
2019-04-06T10:19:51.221Z,44.80
2019-04-06T10:22:05.160Z,45.20
2019-04-06T10:24:08.267Z,42.70
2019-04-06T10:26:14.077Z,38.75
2019-04-06T10:28:32.021Z,45.83
2019-04-06T10:30:50.261Z,39.50
2019-04-06T10:33:08.603Z,46.10
2019-04-06T10:35:12.038Z,40.43
2019-04-06T10:37:15.589Z,41.05
2019-04-06T10:39:35.329Z,42.20
2019-04-06T10:41:39.067Z,42.20
2019-04-06T10:43:45.151Z,43.58
2019-04-06T10:46:00.350Z,41.85
2019-04-06T10:48:12.314Z,40.03
2019-04-06T10:50:15.350Z,38.90
2019-04-06T10:52:18.406Z,37.03
2019-04-06T10:54:27.536Z,37.48
2019-04-06T10:56:31.114Z,38.92
2019-04-06T10:58:37.226Z,37.93
2019-04-06T11:00:46.114Z,39.25
2019-04-06T11:03:02.014Z,36.38
2019-04-06T11:05:12.431Z,38.28
2019-04-06T11:07:33.888Z,36.70
2019-04-06T11:09:37.241Z,36.98
2019-04-06T11:11:40.517Z,36.08
2019-04-06T11:14:02.397Z,38.23
2019-04-06T11:18:21.017Z,39.15
2019-04-06T11:20:41.116Z,34.10
2019-04-06T11:22:44.639Z,34.13
2019-04-06T11:24:47.915Z,38.00
2019-04-06T11:27:05.158Z,36.95
2019-04-06T11:29:20.490Z,40.45
2019-04-06T11:31:23.777Z,32.88
2019-04-06T11:33:39.186Z,35.40
2019-04-06T11:35:45.529Z,39.13
2019-04-06T11:38:00.418Z,34.67
2019-04-06T11:40:22.308Z,33.67
2019-04-06T11:47:03.399Z,33.30
2019-04-06T11:49:09.335Z,33.10
2019-04-06T11:51:28.871Z,37.20
2019-04-06T12:10:59.799Z,33.83
2019-04-06T12:23:36.303Z,25.17
2019-04-06T12:25:53.225Z,29.35
2019-04-06T12:32:15.460Z,31.30
2019-04-06T12:58:36.338Z,23.52
2019-04-06T13:05:18.999Z,20.80
2019-04-06T13:07:22.118Z,23.40
2019-04-06T13:09:28.481Z,22.70
2019-04-06T13:11:37.649Z,22.35
2019-04-06T13:13:43.657Z,24.85
2019-04-06T13:15:55.332Z,22.60
2019-04-06T13:20:06.573Z,20.88
2019-04-06T13:22:26.606Z,21.37
2019-04-06T13:24:29.667Z,21.85
2019-04-06T13:26:49.117Z,20.62
2019-04-06T13:29:04.239Z,21.40
2019-04-06T13:31:13.241Z,20.82
2019-04-06T13:33:19.351Z,18.75
2019-04-06T13:35:28.618Z,19.82
2019-04-06T13:37:48.733Z,21.33
2019-04-06T13:39:52.151Z,21.68
2019-04-06T13:41:58.141Z,20.85
2019-04-06T13:44:18.657Z,18.15
2019-04-06T13:46:24.958Z,18.07
2019-04-06T13:48:44.616Z,17.90
2019-04-06T13:51:04.713Z,15.93
2019-04-06T13:53:17.232Z,13.85
2019-04-06T13:55:32.232Z,14.50
2019-04-06T13:57:38.288Z,17.52
2019-04-06T13:59:58.403Z,16.35
2019-04-06T14:02:07.239Z,16.93
2019-04-06T14:04:13.496Z,16.35
2019-04-06T14:06:22.768Z,15.43
2019-04-06T14:08:31.808Z,15.95
2019-04-06T14:10:49.989Z,14.30
2019-04-06T14:13:10.006Z,16.45
2019-04-06T14:15:22.160Z,14.75
2019-04-06T14:17:25.765Z,18.70
2019-04-06T14:19:32.942Z,15.63
2019-04-06T14:21:42.115Z,16.15
2019-04-06T14:23:51.026Z,12.28
2019-04-06T14:25:54.565Z,12.60
2019-04-06T14:27:57.797Z,16.77
2019-04-06T14:30:17.228Z,21.23
2019-04-06T14:32:27.150Z,21.12
2019-04-06T14:34:35.893Z,18.00
2019-04-06T14:36:54.054Z,18.30
2019-04-06T14:39:06.458Z,16.35
2019-04-06T14:41:25.150Z,18.67
2019-04-06T14:43:40.264Z,18.02
2019-04-06T14:45:58.746Z,16.42
2019-04-06T14:48:04.711Z,19.15
2019-04-06T14:50:14.093Z,19.05
2019-04-06T14:52:34.374Z,17.48
2019-04-06T14:54:37.963Z,17.85
2019-04-06T14:56:41.123Z,17.67
2019-04-06T14:59:02.560Z,19.30
2019-04-06T15:01:11.954Z,19.02
2019-04-06T15:03:32.403Z,18.30
2019-04-06T15:05:41.936Z,20.97
2019-04-06T15:08:02.331Z,17.80
2019-04-06T15:10:06.928Z,19.42
2019-04-06T15:12:13.456Z,21.20
2019-04-06T15:14:33.742Z,18.70
2019-04-06T15:16:37.076Z,23.10
2019-04-06T15:18:43.426Z,23.10
2019-04-06T15:20:52.808Z,20.97
2019-04-06T15:22:56.640Z,21.55
2019-04-06T15:25:00.279Z,19.92
2019-04-06T15:27:20.488Z,19.48
2019-04-06T15:29:33.197Z,25.52
2019-04-06T15:31:47.445Z,21.05
2019-04-06T15:33:44.815Z,24.67
2019-04-06T15:36:04.901Z,20.35
2019-04-06T15:38:13.777Z,20.40
2019-04-06T15:40:17.174Z,20.97
2019-04-06T15:42:20.608Z,22.87
2019-04-06T15:44:29.434Z,22.10
2019-04-06T15:46:35.664Z,22.32
2019-04-06T15:48:47.620Z,21.17
2019-04-06T15:50:59.725Z,22.15
2019-04-06T15:53:06.067Z,21.82
2019-04-06T15:55:09.724Z,21.05
2019-04-06T15:57:15.565Z,20.35
2019-04-06T16:03:39.445Z,21.52
2019-04-06T16:05:42.629Z,21.87
2019-04-06T16:07:46.058Z,18.80
2019-04-06T16:10:07.469Z,21.60
2019-04-06T16:12:13.455Z,22.75
2019-04-06T16:14:16.673Z,22.22
2019-04-06T16:16:22.557Z,21.80
2019-04-06T16:18:25.778Z,22.17
2019-04-06T16:20:28.937Z,21.73
2019-04-06T16:22:44.365Z,24.37
2019-04-06T16:25:05.520Z,23.50
2019-04-06T16:27:23.460Z,21.82
2019-04-06T16:29:44.948Z,20.85
2019-04-06T16:32:11.587Z,21.48
2019-04-06T16:34:15.927Z,23.52
2019-04-06T16:36:36.055Z,18.90
2019-04-06T16:38:51.683Z,21.85
2019-04-06T16:40:54.751Z,22.80
2019-04-06T16:43:04.017Z,24.80
2019-04-06T16:45:07.498Z,22.60
2019-04-06T16:49:31.417Z,25.30
2019-04-06T16:51:40.909Z,23.55
2019-04-06T16:53:49.956Z,22.20
2019-04-06T16:56:05.010Z,25.20
2019-04-06T16:58:27.243Z,23.65
2019-04-06T17:00:30.412Z,26.48
2019-04-06T17:02:48.410Z,24.63
2019-04-06T17:05:02.174Z,26.62
2019-04-06T17:07:07.782Z,23.18
2019-04-06T17:09:10.920Z,25.43
2019-04-06T17:11:19.867Z,23.35
2019-04-06T17:13:23.520Z,22.60
2019-04-06T17:15:36.273Z,25.62
2019-04-06T17:17:56.077Z,24.90
2019-04-06T17:19:59.515Z,25.12
2019-04-06T17:22:05.543Z,24.80
2019-04-06T17:24:17.484Z,22.77
2019-04-06T17:26:37.261Z,24.90
2019-04-06T17:28:40.411Z,20.92
2019-04-06T17:30:43.752Z,24.12
2019-04-06T17:32:47.119Z,24.57
2019-04-06T17:35:05.216Z,23.35
2019-04-06T17:37:23.663Z,22.22
2019-04-06T17:39:29.813Z,24.77
2019-04-06T17:41:33.220Z,23.75
2019-04-06T17:43:51.711Z,21.77
2019-04-06T17:45:54.774Z,24.87
2019-04-06T17:48:07.116Z,25.48
2019-04-06T17:50:16.550Z,24.67
2019-04-06T17:52:31.695Z,20.92
2019-04-06T17:54:34.875Z,24.23
2019-04-06T17:56:38.105Z,24.27
2019-04-06T17:58:53.613Z,23.92
2019-04-06T18:01:02.239Z,24.67
2019-04-06T18:03:08.020Z,24.65
2019-04-06T18:05:11.318Z,26.42
2019-04-06T18:07:14.423Z,25.25
2019-04-06T18:09:27.019Z,25.97
2019-04-06T18:11:30.115Z,25.10
2019-04-06T18:13:33.203Z,25.17
2019-04-06T18:15:34.632Z,26.17
2019-04-06T18:17:37.217Z,24.82
2019-04-06T18:19:38.415Z,26.48
2019-04-06T18:21:39.822Z,25.65
2019-04-06T18:23:41.974Z,23.02
2019-04-06T18:25:45.919Z,28.10
2019-04-06T18:27:47.199Z,25.48
2019-04-06T18:29:49.235Z,26.33
2019-04-06T18:31:55.023Z,25.77
2019-04-06T18:33:56.182Z,27.32
2019-04-06T18:35:57.431Z,29.40
2019-04-06T18:38:02.134Z,27.05
2019-04-06T18:40:08.119Z,27.80
2019-04-06T18:42:09.615Z,27.90
2019-04-06T18:44:11.825Z,28.15
2019-04-06T18:46:15.402Z,27.90
2019-04-06T18:48:20.974Z,27.90
2019-04-06T18:50:34.407Z,26.33
2019-04-06T18:52:28.807Z,24.77
2019-04-06T18:54:30.239Z,26.55
2019-04-06T18:56:31.570Z,23.35
2019-04-06T18:58:33.253Z,25.55
2019-04-06T19:00:34.641Z,26.70
2019-04-06T19:02:36.063Z,27.60
2019-04-06T19:04:37.674Z,25.50
2019-04-06T19:10:43.468Z,26.80
2019-04-06T19:12:44.775Z,27.77
2019-04-06T19:14:46.415Z,27.98
2019-04-06T19:16:47.888Z,27.60
2019-04-06T19:18:49.422Z,29.85
2019-04-06T19:22:51.677Z,29.67
2019-04-06T19:24:52.828Z,29.45
2019-04-06T19:26:54.192Z,27.60
2019-04-06T19:28:55.721Z,29.37
2019-04-06T19:30:57.632Z,31.62
2019-04-06T19:32:58.939Z,31.77
2019-04-06T19:35:01.135Z,31.20
2019-04-06T19:37:02.848Z,33.08
2019-04-06T19:39:07.978Z,32.85
2019-04-06T19:41:09.287Z,32.70
2019-04-06T19:43:10.514Z,32.53
2019-04-06T19:45:12.027Z,32.17
2019-04-06T19:47:13.206Z,27.77
2019-04-06T19:49:14.442Z,34.40
2019-04-06T19:51:15.983Z,34.63
2019-04-06T19:53:17.770Z,33.95
2019-04-06T19:57:20.922Z,31.80
2019-04-06T19:59:22.896Z,31.90
2019-04-06T20:01:24.265Z,32.48
2019-04-06T20:03:34.729Z,33.50
2019-04-06T20:05:29.512Z,32.25
2019-04-06T20:07:31.562Z,29.65
2019-04-06T20:09:32.722Z,30.30
2019-04-06T20:11:34.742Z,29.27
2019-04-06T20:13:35.998Z,29.52
2019-04-06T20:15:37.213Z,30.82
2019-04-06T20:17:39.001Z,28.57
2019-04-06T20:19:40.659Z,26.73
2019-04-06T20:23:43.334Z,26.17
2019-04-06T20:25:44.495Z,27.82
2019-04-06T20:27:46.356Z,30.15
2019-04-06T20:29:47.616Z,28.00
2019-04-06T20:31:48.762Z,34.15
2019-04-06T20:33:52.316Z,26.25
2019-04-06T20:35:53.213Z,38.40
2019-04-06T20:37:54.548Z,38.00
2019-04-06T20:39:55.822Z,37.65
2019-04-06T20:41:57.486Z,37.17
2019-04-06T20:46:00.077Z,35.10
2019-04-06T20:48:01.267Z,34.27
2019-04-06T20:50:04.959Z,38.17
2019-04-06T20:52:06.112Z,30.95
2019-04-06T20:54:07.495Z,37.25
2019-04-06T20:56:08.839Z,37.98
2019-04-06T20:58:10.447Z,34.25
2019-04-06T21:00:12.545Z,35.88
2019-04-06T21:02:13.917Z,36.23
2019-04-06T21:04:15.581Z,36.38
2019-04-06T21:06:17.279Z,38.95
2019-04-06T21:08:18.824Z,36.28
2019-04-06T21:12:21.326Z,39.50
2019-04-06T21:14:22.487Z,40.92
2019-04-06T21:18:36.745Z,41.90
2019-04-06T21:20:38.046Z,38.45
2019-04-06T21:22:39.642Z,34.45
2019-04-06T21:24:41.262Z,35.90
2019-04-06T21:26:42.404Z,36.35
2019-04-06T21:28:43.832Z,34.38
2019-04-06T21:30:45.030Z,33.23
2019-04-06T21:32:46.392Z,29.45
2019-04-06T21:36:49.724Z,25.48
2019-04-06T21:38:51.201Z,28.35
2019-04-06T21:40:53.412Z,27.80
2019-04-06T21:42:54.690Z,27.77
2019-04-06T21:44:56.290Z,28.30
2019-04-06T21:48:58.963Z,27.50
2019-04-06T21:51:00.145Z,27.98
2019-04-06T21:53:01.357Z,28.12
2019-04-06T21:55:05.003Z,27.32
2019-04-06T21:57:06.246Z,26.82
2019-04-06T21:59:07.831Z,26.82
2019-04-06T22:01:10.548Z,29.27
2019-04-06T22:03:12.139Z,30.55
2019-04-06T22:07:15.070Z,34.50
2019-04-06T22:09:16.401Z,29.30
2019-04-06T22:11:17.671Z,32.63
2019-04-06T22:13:19.484Z,31.05
2019-04-06T22:15:21.527Z,30.32
2019-04-06T22:17:23.267Z,25.77
2019-04-06T22:19:24.790Z,30.60
2019-04-06T22:21:27.073Z,31.62
2019-04-06T22:23:39.709Z,30.50
2019-04-06T22:25:31.453Z,33.98
2019-04-06T22:27:32.584Z,32.53
2019-04-06T22:29:34.268Z,28.62
2019-04-06T22:31:35.899Z,35.73
2019-04-06T22:33:38.189Z,33.75
2019-04-06T22:35:39.764Z,35.35
2019-04-06T22:37:40.911Z,34.75
2019-04-06T22:39:42.462Z,31.05
2019-04-06T22:41:44.010Z,29.30
2019-04-06T22:43:45.690Z,28.50
2019-04-06T22:47:48.250Z,29.37
2019-04-06T22:49:49.826Z,30.10
2019-04-06T22:51:51.601Z,25.05
2019-04-06T22:53:52.973Z,27.70
2019-04-06T22:55:54.126Z,26.07
2019-04-06T22:57:55.690Z,29.20
2019-04-06T23:01:58.693Z,24.87
2019-04-06T23:04:07.643Z,24.80
2019-04-06T23:06:28.906Z,24.43
2019-04-06T23:08:30.074Z,27.45
2019-04-06T23:10:31.735Z,26.70
2019-04-06T23:14:33.997Z,26.33
2019-04-06T23:16:35.171Z,26.20
2019-04-06T23:18:36.718Z,26.23
2019-04-06T23:22:39.013Z,27.45
2019-04-06T23:24:40.806Z,26.23
2019-04-06T23:26:42.462Z,25.92
2019-04-06T23:28:44.512Z,24.90
2019-04-06T23:30:45.901Z,26.48
2019-04-06T23:32:47.154Z,26.40
2019-04-06T23:34:57.818Z,26.62
2019-04-06T23:36:51.380Z,24.70
2019-04-06T23:38:52.518Z,26.65
2019-04-06T23:40:53.672Z,25.35
2019-04-06T23:42:54.946Z,24.80
2019-04-06T23:44:56.781Z,25.95
2019-04-06T23:46:58.763Z,25.55
2019-04-06T23:49:02.419Z,23.20
2019-04-06T23:51:03.542Z,26.02
2019-04-06T23:53:04.668Z,26.20
2019-04-06T23:55:07.029Z,23.35
2019-04-06T23:57:08.281Z,24.18
2019-04-06T23:59:09.678Z,24.37
